KSCF/SCF METAR and TAF weather

Enter ICAO airport designator
Station Type Date Time Source
KSCF METAR 2019/05/25 15:35 UTC NOAA

KSCF 251535Z AUTO 12014KT 10SM CLR 27/23 A3007 RMK A01


Station Type Date Time Source
KSCF Decoded METAR 2019/05/25 15:35 UTC NOAA

South Marsh 268, LA, United States (KSCF) 29-06-57N 091-52-16W
May 25, 2019 - 11:35 AM EDT / 2019.05.25 1535 UTC
Wind: from the ESE (120 degrees) at 16 MPH (14 KT):0
Visibility: 10 mile(s):0
Sky conditions: clear
Temperature: 80 F (27 C)
Dew Point: 73 F (23 C)
Relative Humidity: 78%
Pressure (altimeter): 30.07 in. Hg (1018 hPa)
ob: KSCF 251535Z AUTO 12014KT 10SM CLR 27/23 A3007 RMK A01
cycle: 15

Station Type Date Time Source
KSCF TAF UTC NOAA

Error!

Example: see airport list